Terminal Aerodrome Forecast
Issued by NWS St Louis, MO

Home | Current Version | Previous Version | Text Only | Print | Product List | Glossary On
Versions: 1 2 3 4 5 6 7 8 9 10 11 12 13 14 15
501
FTUS43 KLSX 311135
TAFCOU
TAF
KCOU 311135Z 3112/0112 15005KT P6SM VCSH OVC080
     FM311400 14008KT P6SM BKN050
     FM010300 15006KT P6SM VCSH BKN050
     FM010600 VRB04KT P6SM BKN090=

USA.gov is the U.S. government's official web portal to all federal, state and local government web resources and services.